Time;durP1;ratioP1;P1;durP2;ratioP2;P2;SDS_P1;SDS_P2;PMS_P1;PMS_P2;Temp;Humidity;BMP_temperature;BMP_pressure;BME280_temperature;BME280_humidity;BME280_pressure;Samples;Min_cycle;Max_cycle;Signal;HPM_P1;HPM_P2
2021/03/02 00:00:26;;;;;;;18.60;11.63;;;;;;;7.06;69.27;101285.97;5014889;28;20141;-54
2021/03/02 00:02:52;;;;;;;22.58;10.95;;;;;;;7.07;69.27;101276.56;5015231;28;20050;-55
2021/03/02 00:05:19;;;;;;;18.33;11.38;;;;;;;7.05;68.98;101283.31;5015093;28;20091;-55
2021/03/02 00:07:50;;;;;;;16.65;11.65;;;;;;;7.03;69.19;101272.91;5015165;28;20034;-55
2021/03/02 00:10:16;;;;;;;21.42;10.80;;;;;;;7.03;68.70;101274.63;5014975;28;20038;-53
2021/03/02 00:12:51;;;;;;;18.70;11.20;;;;;;;6.99;68.70;101277.03;5015182;28;20046;-54
2021/03/02 00:15:19;;;;;;;12.90;9.93;;;;;;;6.98;68.61;101269.25;5013683;28;20034;-55
2021/03/02 00:17:50;;;;;;;18.70;11.90;;;;;;;6.96;68.72;101276.00;5013592;28;20037;-55
2021/03/02 00:20:23;;;;;;;16.17;10.63;;;;;;;6.94;69.10;101281.06;5014672;28;20061;-55
2021/03/02 00:23:27;;;;;;;19.83;10.65;;;;;;;6.92;68.73;101277.56;5014586;28;20037;-55
2021/03/02 00:26:04;;;;;;;16.25;9.75;;;;;;;6.89;68.81;101272.25;4954429;29;20035;-53
2021/03/02 00:28:38;;;;;;;;;;;;;;;6.85;69.06;101276.34;4954163;28;20043;-55
2021/03/02 00:31:07;;;;;;;19.33;9.95;;;;;;;6.85;68.79;101278.91;4990266;28;19918;-55
2021/03/02 00:33:42;;;;;;;16.83;9.85;;;;;;;6.84;69.11;101276.25;5014619;28;20101;-55
2021/03/02 00:36:11;;;;;;;13.93;9.30;;;;;;;6.82;69.12;101276.19;5014251;28;20038;-54
2021/03/02 00:38:42;;;;;;;15.13;10.13;;;;;;;6.79;68.50;101270.88;5013265;28;20034;-55
2021/03/02 00:41:16;;;;;;;15.55;10.55;;;;;;;6.79;68.80;101269.97;5030012;28;20129;-55
2021/03/02 00:43:49;;;;;;;14.45;9.93;;;;;;;6.77;68.64;101267.34;5029699;28;20123;-55
2021/03/02 00:46:18;;;;;;;15.32;11.52;;;;;;;6.77;68.95;101269.03;5013233;28;20041;-55
2021/03/02 00:48:48;;;;;;;15.73;9.50;;;;;;;6.77;68.83;101274.19;5014025;28;20069;-55
2021/03/02 00:51:19;;;;;;;14.07;9.82;;;;;;;6.75;68.86;101275.81;5012709;28;20508;-55
2021/03/02 00:53:45;;;;;;;15.95;9.82;;;;;;;6.74;68.64;101264.59;5014443;28;20037;-55
2021/03/02 00:56:15;;;;;;;14.43;9.75;;;;;;;6.75;68.86;101275.81;5014312;28;20477;-55
2021/03/02 00:58:44;;;;;;;15.35;10.40;;;;;;;6.76;68.85;101270.72;5013894;28;20026;-55
2021/03/02 01:01:09;;;;;;;17.05;10.45;;;;;;;6.73;69.17;101272.25;5012918;28;20038;-55
2021/03/02 01:03:35;;;;;;;20.15;12.00;;;;;;;6.75;68.83;101279.25;4997356;28;20129;-55
2021/03/02 01:06:00;;;;;;;19.35;12.15;;;;;;;6.75;68.96;101271.53;5012778;28;20074;-55
2021/03/02 01:08:31;;;;;;;22.63;13.68;;;;;;;6.75;68.71;101268.94;5013979;28;20030;-55
2021/03/02 01:10:57;;;;;;;25.15;13.95;;;;;;;6.77;69.07;101269.03;5013873;28;20034;-55
2021/03/02 01:13:28;;;;;;;26.00;13.63;;;;;;;6.77;68.79;101269.91;5014006;28;20034;-56
2021/03/02 01:15:53;;;;;;;27.80;14.15;;;;;;;6.78;69.20;101268.22;5029321;28;20084;-55
2021/03/02 01:18:22;;;;;;;26.10;14.38;;;;;;;6.77;69.04;101266.47;5013850;28;20438;-55
2021/03/02 01:20:50;;;;;;;25.55;13.77;;;;;;;6.78;68.76;101270.78;5013641;28;20034;-55
2021/03/02 01:23:18;;;;;;;26.55;14.68;;;;;;;6.78;68.36;101270.78;5013593;28;20112;-55
2021/03/02 01:25:52;;;;;;;28.05;15.13;;;;;;;6.78;68.48;101263.97;5013881;28;20037;-55
2021/03/02 01:28:18;;;;;;;;;;;;;;;6.77;68.62;101269.03;5012764;28;20026;-56
2021/03/02 01:30:49;;;;;;;27.30;15.35;;;;;;;6.79;68.92;101257.09;5028797;28;20423;-55
2021/03/02 01:33:14;;;;;;;23.70;15.13;;;;;;;6.78;68.97;101266.53;5012148;28;20041;-55
2021/03/02 01:35:48;;;;;;;30.33;16.02;;;;;;;6.79;68.63;101259.69;5013459;28;20034;-55
2021/03/02 01:38:16;;;;;;;29.08;15.65;;;;;;;6.79;68.78;101267.41;5012379;28;20414;-55
2021/03/02 01:40:47;;;;;;;34.33;17.45;;;;;;;6.78;68.54;101261.38;5013643;28;20034;-54
2021/03/02 01:43:15;;;;;;;33.22;18.08;;;;;;;6.79;68.86;101272.56;5013203;28;20037;-55
2021/03/02 01:45:46;;;;;;;33.20;19.75;;;;;;;6.79;69.17;101267.41;5013773;28;20033;-55
2021/03/02 01:48:18;;;;;;;37.88;20.33;;;;;;;6.77;68.86;101264.75;5013526;28;20033;-54
2021/03/02 01:50:49;;;;;;;38.67;21.67;;;;;;;6.78;69.15;101263.06;5012342;28;20062;-56
2021/03/02 01:53:23;;;;;;;35.20;19.70;;;;;;;6.78;68.77;101260.47;5012277;28;20120;-55
2021/03/02 01:55:53;;;;;;;39.35;20.52;;;;;;;6.77;69.11;101266.47;5012505;28;20408;-55
2021/03/02 01:58:28;;;;;;;33.33;19.58;;;;;;;6.74;69.14;101259.44;5013323;28;20061;-55
2021/03/02 02:00:56;;;;;;;37.42;22.08;;;;;;;6.75;68.65;101256.06;5011828;28;20046;-55
2021/03/02 02:03:33;;;;;;;43.60;22.80;;;;;;;6.76;68.51;101262.13;5013315;28;20046;-55
2021/03/02 02:06:04;;;;;;;36.35;21.73;;;;;;;6.75;68.44;101255.19;5013027;28;20041;-53
2021/03/02 02:08:44;;;;;;;37.47;21.90;;;;;;;6.73;68.75;101252.53;5011863;28;20034;-55
2021/03/02 02:11:41;;;;;;;34.53;19.17;;;;;;;6.72;68.73;101255.03;5013673;28;20057;-56
2021/03/02 02:14:30;;;;;;;38.53;21.00;;;;;;;6.72;68.87;101250.75;5007695;28;20046;-55
2021/03/02 02:16:59;;;;;;;36.28;19.55;;;;;;;6.72;68.34;101244.72;4999362;28;20046;-56
2021/03/02 02:19:39;;;;;;;33.67;18.17;;;;;;;6.70;68.67;101244.63;5013041;28;20129;-54
2021/03/02 02:22:13;;;;;;;31.17;18.45;;;;;;;6.72;68.87;101249.88;5013434;28;20461;-55
2021/03/02 02:24:55;;;;;;;32.63;18.75;;;;;;;6.72;68.38;101244.72;5013356;28;20432;-55
2021/03/02 02:27:24;;;;;;;33.97;17.83;;;;;;;6.69;68.69;101243.75;5013650;28;20116;-55
2021/03/02 02:29:49;;;;;;;29.63;19.00;;;;;;;6.71;68.64;101243.81;5011740;28;20080;-55
2021/03/02 02:32:15;;;;;;;42.08;17.52;;;;;;;6.72;68.35;101242.16;5012958;28;20069;-55
2021/03/02 02:34:43;;;;;;;30.77;19.25;;;;;;;6.70;68.72;101237.81;5012858;28;20061;-56
2021/03/02 02:37:13;;;;;;;28.00;17.92;;;;;;;6.70;68.48;101239.47;5013241;28;20400;-56
2021/03/02 02:39:42;;;;;;;27.88;16.30;;;;;;;6.69;68.45;101233.47;5012700;28;20500;-56
2021/03/02 02:42:12;;;;;;;24.48;16.05;;;;;;;6.67;68.83;101227.34;5011708;28;20041;-55
2021/03/02 02:44:38;;;;;;;25.58;15.63;;;;;;;6.67;68.32;101231.63;5013030;28;20030;-55
2021/03/02 02:47:07;;;;;;;24.73;16.52;;;;;;;6.64;68.79;101229.75;5012764;28;20069;-55
2021/03/02 02:49:36;;;;;;;32.75;16.15;;;;;;;6.63;68.57;101229.69;5012752;28;20472;-54
2021/03/02 02:52:05;;;;;;;24.05;15.07;;;;;;;6.63;68.31;101227.09;5014739;28;20034;-55
2021/03/02 02:54:32;;;;;;;28.63;17.48;;;;;;;6.63;68.36;101233.13;5016798;28;20041;-52
2021/03/02 02:57:00;;;;;;;28.83;17.63;;;;;;;6.63;68.43;101232.25;5016212;28;20034;-56
2021/03/02 02:59:32;;;;;;;25.45;15.65;;;;;;;6.62;68.58;101225.34;5016178;28;20189;-55
2021/03/02 03:02:05;;;;;;;33.75;18.15;;;;;;;6.62;68.91;101225.34;5016056;28;20049;-55
2021/03/02 03:04:38;;;;;;;29.98;18.33;;;;;;;6.61;68.49;101224.47;5014670;28;20026;-56
2021/03/02 03:07:19;;;;;;;28.23;17.10;;;;;;;6.60;68.28;101227.84;5014722;28;20128;-55
2021/03/02 03:09:45;;;;;;;26.85;17.02;;;;;;;6.59;68.84;101228.66;5016404;28;20389;-55
2021/03/02 03:12:15;;;;;;;25.63;17.00;;;;;;;6.57;68.80;101224.19;5016367;28;20038;-55
2021/03/02 03:14:47;;;;;;;25.35;15.60;;;;;;;6.56;68.45;101223.34;5016289;28;20120;-55
2021/03/02 03:17:20;;;;;;;29.13;15.90;;;;;;;6.56;68.44;101220.75;5016202;28;20038;-55
2021/03/02 03:19:51;;;;;;;22.60;14.73;;;;;;;6.54;68.70;101219.78;5016147;28;20044;-55
2021/03/02 03:22:23;;;;;;;22.75;15.45;;;;;;;6.55;68.32;101217.28;5015152;28;20424;-55
2021/03/02 03:24:49;;;;;;;20.10;13.50;;;;;;;6.56;68.56;101218.19;5015664;28;20478;-56
2021/03/02 03:27:18;;;;;;;25.85;14.80;;;;;;;6.58;68.30;101220.81;5014466;28;20026;-56
2021/03/02 03:29:46;;;;;;;25.75;14.20;;;;;;;6.56;68.60;101213.03;5015431;28;20042;-55
2021/03/02 03:32:18;;;;;;;29.52;14.88;;;;;;;6.54;68.44;101215.50;5016086;28;20041;-55
2021/03/02 03:34:50;;;;;;;24.40;14.68;;;;;;;6.55;68.07;101217.28;5015900;28;20041;-54
2021/03/02 03:37:15;;;;;;;26.95;15.40;;;;;;;6.55;68.74;101219.84;5015859;28;20033;-55
2021/03/02 03:39:43;;;;;;;25.67;14.48;;;;;;;6.55;68.31;101217.28;5015851;28;20504;-55
2021/03/02 03:42:09;;;;;;;24.17;14.68;;;;;;;6.55;68.31;101211.25;5015214;28;20124;-55
2021/03/02 03:44:40;;;;;;;20.33;12.82;;;;;;;6.55;67.87;101208.69;5015481;28;20112;-55
2021/03/02 03:47:08;;;;;;;24.63;13.85;;;;;;;6.53;68.06;101218.03;5015569;28;20112;-55
2021/03/02 03:49:39;;;;;;;25.25;14.38;;;;;;;6.53;68.43;101208.63;5015498;28;20412;-54
2021/03/02 03:52:09;;;;;;;20.13;13.75;;;;;;;6.52;68.52;101209.41;5015612;28;20034;-55
2021/03/02 03:54:39;;;;;;;23.33;14.32;;;;;;;6.53;68.33;101218.03;5015458;28;20061;-55
2021/03/02 03:57:05;;;;;;;19.63;12.75;;;;;;;6.53;68.56;101213.78;5014969;28;20132;-55
2021/03/02 03:59:38;;;;;;;21.83;13.50;;;;;;;6.53;67.93;101212.88;5015389;28;20072;-55
2021/03/02 04:02:10;;;;;;;19.52;12.93;;;;;;;6.51;68.45;101217.06;5030466;28;20525;-55
2021/03/02 04:04:39;;;;;;;18.77;13.02;;;;;;;6.52;68.36;101208.53;5014326;28;20030;-55
2021/03/02 04:07:08;;;;;;;21.25;13.68;;;;;;;6.51;68.43;101212.81;5014802;28;20034;-55
2021/03/02 04:09:39;;;;;;;17.77;11.90;;;;;;;6.49;68.05;101214.41;5014769;28;20110;-55
2021/03/02 04:12:09;;;;;;;21.63;12.75;;;;;;;6.47;67.81;101209.97;5015231;28;20044;-55
2021/03/02 04:14:40;;;;;;;24.58;13.57;;;;;;;6.48;68.23;101209.16;5014720;28;20045;-55
2021/03/02 04:17:10;;;;;;;22.92;13.80;;;;;;;6.46;67.72;101219.41;5014896;28;20038;-55
2021/03/02 04:19:36;;;;;;;20.58;13.55;;;;;;;6.44;68.45;101213.28;5014733;28;20103;-55
2021/03/02 04:22:05;;;;;;;20.52;12.57;;;;;;;6.44;67.90;101222.72;5014984;28;20057;-54
2021/03/02 04:24:31;;;;;;;19.80;13.13;;;;;;;6.43;68.23;101213.22;5013388;28;20089;-54
2021/03/02 04:27:06;;;;;;;20.42;13.50;;;;;;;6.40;67.97;101222.53;5029938;28;20030;-55
2021/03/02 04:29:34;;;;;;;20.88;14.20;;;;;;;6.39;68.41;101222.44;5014083;28;20042;-55
2021/03/02 04:32:02;;;;;;;20.67;12.80;;;;;;;6.38;67.77;101220.72;5014987;28;20099;-55
2021/03/02 04:34:31;;;;;;;18.85;13.00;;;;;;;6.37;68.40;101218.94;5014441;28;20045;-55
2021/03/02 04:36:59;;;;;;;21.05;13.35;;;;;;;6.38;68.48;101218.13;5014518;28;20033;-55
2021/03/02 04:39:27;;;;;;;19.77;13.43;;;;;;;6.38;68.17;101216.44;5014344;28;20038;-55
2021/03/02 04:41:53;;;;;;;19.52;12.52;;;;;;;6.37;68.00;101212.09;5014584;28;20133;-55
2021/03/02 04:44:21;;;;;;;19.88;12.13;;;;;;;6.38;67.83;101218.13;5014555;28;20485;-55
2021/03/02 04:46:50;;;;;;;18.30;13.02;;;;;;;6.37;67.91;101212.09;5014523;28;20038;-55
2021/03/02 04:49:21;;;;;;;19.60;12.23;;;;;;;6.37;68.28;101221.50;5013116;28;20044;-55
2021/03/02 04:51:51;;;;;;;21.20;12.93;;;;;;;6.36;68.00;101212.00;5014206;28;20378;-55
2021/03/02 04:54:16;;;;;;;20.23;11.90;;;;;;;6.36;67.95;101214.59;5029512;28;20034;-56
2021/03/02 04:56:49;;;;;;;21.98;13.43;;;;;;;6.35;68.19;101217.97;5014355;28;20069;-55
2021/03/02 04:59:18;;;;;;;21.27;14.13;;;;;;;6.34;68.26;101211.91;5029502;28;20508;-55
2021/03/02 05:01:47;;;;;;;22.33;14.45;;;;;;;6.33;68.19;101206.69;5029256;28;20053;-55
2021/03/02 05:04:14;;;;;;;22.92;14.80;;;;;;;6.32;68.11;101208.38;5014087;28;20053;-55
2021/03/02 05:06:46;;;;;;;24.52;14.40;;;;;;;6.31;68.17;101210.88;5013901;28;20045;-55
2021/03/02 05:09:17;;;;;;;23.15;14.15;;;;;;;6.30;67.38;101204.84;5012470;28;20044;-55
2021/03/02 05:11:52;;;;;;;20.20;12.70;;;;;;;6.29;67.43;101208.25;5013785;28;20088;-55
2021/03/02 05:14:20;;;;;;;21.35;14.20;;;;;;;6.29;67.93;101213.38;5013761;28;20038;-55
2021/03/02 05:16:46;;;;;;;24.05;14.15;;;;;;;6.28;67.99;101216.75;5014096;28;20038;-54
2021/03/02 05:19:17;;;;;;;27.88;15.65;;;;;;;6.27;67.65;101217.56;5013737;28;20034;-55
2021/03/02 05:21:49;;;;;;;21.88;14.85;;;;;;;6.25;67.81;101217.47;5012287;28;20034;-55
2021/03/02 05:24:17;;;;;;;21.58;14.02;;;;;;;6.23;67.74;101213.91;5013743;28;20045;-54
2021/03/02 05:26:45;;;;;;;26.42;14.82;;;;;;;6.23;68.03;101210.47;5012157;28;20048;-55
2021/03/02 05:29:16;;;;;;;22.48;14.77;;;;;;;6.22;67.78;101213.84;5014162;28;20038;-55
2021/03/02 05:31:44;;;;;;;26.90;15.68;;;;;;;6.22;68.19;101212.19;5013709;28;20038;-55
2021/03/02 05:34:12;;;;;;;22.25;13.48;;;;;;;6.21;67.95;101207.84;5013570;28;20038;-55
2021/03/02 05:36:42;;;;;;;26.35;15.20;;;;;;;6.21;68.10;101209.50;5028627;28;20445;-55
2021/03/02 05:39:11;;;;;;;24.60;14.07;;;;;;;6.20;67.58;101210.31;5028641;28;20046;-55
2021/03/02 05:41:44;;;;;;;23.52;15.38;;;;;;;6.20;67.83;101218.03;5013690;28;20069;-54
2021/03/02 05:44:13;;;;;;;21.30;13.93;;;;;;;6.19;67.71;101211.13;5012762;28;20042;-55
2021/03/02 05:46:42;;;;;;;23.20;14.48;;;;;;;6.18;68.16;101212.81;5013600;28;20453;-55
2021/03/02 05:49:14;;;;;;;25.30;14.45;;;;;;;6.17;67.56;101216.19;5013382;28;20037;-55
2021/03/02 05:51:45;;;;;;;23.05;14.45;;;;;;;6.14;67.24;101203.16;5013719;28;20037;-55
2021/03/02 05:54:17;;;;;;;21.75;14.20;;;;;;;6.15;67.98;101207.50;5028849;28;20038;-55
2021/03/02 05:56:48;;;;;;;21.27;13.52;;;;;;;6.15;67.99;101212.66;5013847;28;20034;-55
2021/03/02 05:59:17;;;;;;;21.90;13.60;;;;;;;6.15;68.07;101209.22;5013833;28;20092;-55
2021/03/02 06:01:43;;;;;;;24.50;14.35;;;;;;;6.14;67.71;101213.44;5013267;28;20125;-55
2021/03/02 06:04:15;;;;;;;19.75;13.30;;;;;;;6.14;67.83;101212.59;5011904;28;20121;-55
2021/03/02 06:06:41;;;;;;;25.88;14.25;;;;;;;6.13;67.79;101215.97;5028768;28;20486;-54
2021/03/02 06:09:09;;;;;;;21.58;12.98;;;;;;;6.13;67.86;101215.97;5013208;28;20036;-55
2021/03/02 06:11:37;;;;;;;20.42;13.85;;;;;;;6.13;67.39;101213.38;5013340;28;20492;-55
2021/03/02 06:14:22;;;;;;;20.75;13.63;;;;;;;6.11;68.01;101207.28;5013022;28;20077;-55
2021/03/02 06:16:54;;;;;;;19.75;12.38;;;;;;;6.12;67.63;101209.03;5012970;28;20038;-55
2021/03/02 06:19:43;;;;;;;23.05;12.63;;;;;;;6.09;67.68;101209.75;5013668;28;20124;-56
2021/03/02 06:22:36;;;;;;;19.25;11.82;;;;;;;6.07;68.08;101207.09;5013180;28;20485;-55
2021/03/02 06:25:33;;;;;;;20.35;12.70;;;;;;;6.08;67.32;101207.97;5012232;28;20442;-55
2021/03/02 06:28:02;;;;;;;20.35;12.70;;;;;;;6.07;67.81;101212.25;5010684;28;20049;-54
2021/03/02 06:30:36;;;;;;;21.63;12.45;;;;;;;6.07;67.26;101208.81;5016975;28;20059;-55
2021/03/02 06:33:02;;;;;;;19.17;11.60;;;;;;;6.08;67.71;101208.88;5017110;28;20496;-55
2021/03/02 06:35:38;;;;;;;22.67;12.50;;;;;;;6.09;67.26;101213.22;5016507;28;20034;-55
2021/03/02 06:38:05;;;;;;;19.83;11.77;;;;;;;6.10;67.53;101219.22;5016516;28;20107;-54
2021/03/02 06:40:47;;;;;;;24.10;12.45;;;;;;;6.09;67.47;101212.31;5017278;28;20033;-55
2021/03/02 06:43:36;;;;;;;22.02;12.32;;;;;;;6.08;67.76;101214.03;5017036;28;20045;-55
2021/03/02 06:46:09;;;;;;;19.98;12.05;;;;;;;6.08;67.47;101221.75;5015681;28;20555;-55
2021/03/02 06:48:58;;;;;;;17.65;11.65;;;;;;;6.07;67.60;101219.97;5016383;28;20111;-56
2021/03/02 06:51:35;;;;;;;19.15;11.68;;;;;;;6.08;67.24;101226.00;5015540;28;20030;-55
2021/03/02 06:54:11;;;;;;;35.00;11.85;;;;;;;6.07;67.22;101227.69;5032021;28;20030;-55
2021/03/02 06:56:42;;;;;;;26.80;12.27;;;;;;;6.07;67.15;101227.69;5015327;28;20081;-56
2021/03/02 06:59:21;;;;;;;19.55;12.43;;;;;;;6.09;67.46;101225.19;5016333;28;20060;-55
2021/03/02 07:01:51;;;;;;;21.05;12.35;;;;;;;6.08;67.50;101226.88;5016032;28;20086;-55
2021/03/02 07:04:21;;;;;;;17.70;10.73;;;;;;;6.08;67.57;101223.41;5015051;28;20034;-54
2021/03/02 07:06:58;;;;;;;20.02;11.77;;;;;;;6.09;67.45;101236.38;5016254;28;20125;-55
2021/03/02 07:09:27;;;;;;;15.50;10.90;;;;;;;6.11;67.86;101231.31;5016357;28;20033;-55
2021/03/02 07:11:58;;;;;;;21.25;12.05;;;;;;;6.12;67.20;101229.63;5016257;28;20038;-55
2021/03/02 07:14:27;;;;;;;14.50;10.18;;;;;;;6.12;67.78;101232.22;5014725;28;20468;-55
2021/03/02 07:16:58;;;;;;;17.63;12.50;;;;;;;6.12;67.54;101227.94;5015976;28;20037;-55
2021/03/02 07:19:35;;;;;;;14.88;11.05;;;;;;;6.12;67.48;101222.78;5015828;28;20053;-55
2021/03/02 07:22:09;;;;;;;20.00;12.00;;;;;;;6.13;67.03;101232.28;5014552;28;20076;-54
2021/03/02 07:24:40;;;;;;;18.92;12.43;;;;;;;6.15;67.59;101224.66;5015011;28;20073;-55
2021/03/02 07:27:19;;;;;;;20.35;11.05;;;;;;;6.15;67.07;101238.41;5015041;28;20462;-55
2021/03/02 07:29:58;;;;;;;18.45;10.13;;;;;;;6.15;67.02;101228.09;5016111;28;20033;-55
2021/03/02 07:32:39;;;;;;;16.70;10.30;;;;;;;6.15;67.18;101235.81;5015445;28;20069;-55
2021/03/02 07:35:07;;;;;;;18.67;12.23;;;;;;;6.16;67.29;101237.59;5016058;28;20037;-55
2021/03/02 07:37:38;;;;;;;17.67;11.93;;;;;;;6.19;67.08;101229.13;5014395;28;20041;-56
2021/03/02 07:40:15;;;;;;;17.23;10.75;;;;;;;6.20;67.43;101243.78;5015478;28;20088;-55
2021/03/02 07:42:46;;;;;;;19.23;10.98;;;;;;;6.22;67.78;101239.59;5014464;28;20037;-55
2021/03/02 07:45:19;;;;;;;18.60;11.35;;;;;;;6.23;67.67;101251.66;5014203;28;20037;-55
2021/03/02 07:47:56;;;;;;;19.60;12.15;;;;;;;6.24;67.39;101248.28;5015635;28;20038;-54
2021/03/02 07:50:33;;;;;;;18.58;12.18;;;;;;;6.27;67.39;101245.88;5030789;28;20030;-54
2021/03/02 07:53:14;;;;;;;17.27;11.57;;;;;;;6.28;67.80;101239.03;5015153;28;20037;-56
2021/03/02 07:55:42;;;;;;;16.52;10.32;;;;;;;6.29;67.43;101246.84;5015423;28;20042;-54
2021/03/02 07:58:18;;;;;;;17.63;11.85;;;;;;;6.30;67.70;101240.00;5015493;28;20030;-55
2021/03/02 08:00:49;;;;;;;18.92;11.70;;;;;;;6.32;66.88;101235.81;5015575;28;20041;-55
2021/03/02 08:03:18;;;;;;;16.95;10.68;;;;;;;6.32;67.42;101239.28;5015231;28;20053;-55
2021/03/02 08:05:47;;;;;;;16.20;11.82;;;;;;;6.34;67.35;101241.94;5013631;28;20125;-55
2021/03/02 08:08:24;;;;;;;19.15;11.20;;;;;;;6.34;67.01;101245.38;5015324;28;20064;-55
2021/03/02 08:10:59;;;;;;;15.80;11.10;;;;;;;6.35;67.69;101244.59;5014012;28;20034;-54
2021/03/02 08:13:31;;;;;;;17.77;10.68;;;;;;;6.37;66.96;101245.56;5015157;28;20038;-55
2021/03/02 08:16:02;;;;;;;;;;;;;;;6.37;67.11;101255.00;5015597;28;20033;-55
2021/03/02 08:18:44;;;;;;;18.98;11.75;;;;;;;6.38;67.00;101244.75;5014904;28;19956;-55
2021/03/02 08:21:20;;;;;;;20.80;11.93;;;;;;;6.41;67.69;101251.75;5015100;28;20034;-55
2021/03/02 08:23:59;;;;;;;18.45;10.75;;;;;;;6.42;67.52;101258.66;5013686;28;20032;-55
2021/03/02 08:26:31;;;;;;;17.08;10.45;;;;;;;6.44;67.22;101263.91;5014979;28;20041;-54
2021/03/02 08:29:05;;;;;;;;;;;;;;;6.44;67.57;101261.34;5015660;28;20030;-55
2021/03/02 08:31:40;;;;;;;15.57;10.20;;;;;;;6.45;67.42;101258.84;5014913;28;19913;-55
2021/03/02 08:34:10;;;;;;;18.67;11.23;;;;;;;6.48;67.38;101260.66;5014720;28;20069;-55
2021/03/02 08:36:37;;;;;;;11.80;9.10;;;;;;;6.50;67.18;101266.78;5029784;28;20030;-56
2021/03/02 08:39:13;;;;;;;16.92;10.40;;;;;;;6.51;66.93;101266.91;5013419;28;20089;-55
2021/03/02 08:41:48;;;;;;;16.35;10.68;;;;;;;6.54;67.67;101263.59;5014643;28;20030;-55
2021/03/02 08:44:24;;;;;;;21.40;10.82;;;;;;;6.58;66.96;101278.41;5014635;28;20061;-55
2021/03/02 08:47:01;;;;;;;13.55;9.70;;;;;;;6.60;67.68;101274.22;5014736;28;20034;-55
2021/03/02 08:49:29;;;;;;;14.60;10.85;;;;;;;6.65;67.27;101277.91;5029290;28;20034;-55
2021/03/02 08:52:01;;;;;;;16.02;11.15;;;;;;;6.68;67.53;101275.47;5029794;28;20136;-54
2021/03/02 08:54:30;;;;;;;16.38;10.10;;;;;;;6.73;67.09;101282.56;5014210;28;20385;-55
2021/03/02 08:57:05;;;;;;;15.88;11.25;;;;;;;6.76;67.14;101269.84;5013106;28;20060;-55
2021/03/02 08:59:34;;;;;;;15.73;9.80;;;;;;;6.80;66.90;101282.06;5013926;28;20033;-55
2021/03/02 09:02:02;;;;;;;14.70;9.68;;;;;;;6.82;67.13;101281.34;5013884;28;20508;-55
2021/03/02 09:04:35;;;;;;;15.13;11.38;;;;;;;6.84;67.35;101284.91;5014057;28;20359;-55
2021/03/02 09:07:06;;;;;;;15.25;9.85;;;;;;;6.88;66.72;101293.66;5029473;28;20034;-55
2021/03/02 09:09:34;;;;;;;19.55;9.80;;;;;;;6.90;66.98;101281.75;5029585;28;20121;-55
2021/03/02 09:12:02;;;;;;;14.90;10.13;;;;;;;6.91;66.48;101278.38;5013784;28;20037;-55
2021/03/02 09:14:33;;;;;;;13.70;9.98;;;;;;;6.94;66.55;101280.19;5014075;28;20067;-55
2021/03/02 09:17:02;;;;;;;15.38;9.85;;;;;;;6.95;66.93;101285.41;4997248;28;20048;-54
2021/03/02 09:19:33;;;;;;;14.57;10.05;;;;;;;6.99;66.98;101287.34;5029007;28;20075;-55
2021/03/02 09:22:17;;;;;;;15.88;10.70;;;;;;;7.01;66.51;101284.84;5013992;28;20052;-55
2021/03/02 09:24:54;;;;;;;14.20;9.77;;;;;;;7.04;66.71;101282.41;5028915;28;20041;-54
2021/03/02 09:27:32;;;;;;;13.68;9.88;;;;;;;7.06;66.39;101288.53;5012747;28;20128;-55
2021/03/02 09:30:10;;;;;;;14.63;10.73;;;;;;;7.09;66.99;101292.97;5013961;28;20508;-55
2021/03/02 09:32:38;;;;;;;14.05;10.52;;;;;;;7.12;66.88;101293.13;5013490;28;20061;-55
2021/03/02 09:35:07;;;;;;;17.58;10.32;;;;;;;7.14;66.79;101291.50;5013345;28;20193;-55
2021/03/02 09:37:39;;;;;;;15.38;10.73;;;;;;;7.18;66.71;101289.97;5029145;28;20397;-55
2021/03/02 09:40:12;;;;;;;14.30;10.63;;;;;;;7.19;66.93;101292.63;5013631;28;20045;-55
2021/03/02 09:42:53;;;;;;;15.32;10.20;;;;;;;7.22;66.68;101294.47;5012496;28;20385;-55
2021/03/02 09:45:24;;;;;;;14.38;10.30;;;;;;;7.25;66.48;101294.63;5013296;28;20026;-55
2021/03/02 09:48:01;;;;;;;17.25;9.65;;;;;;;7.27;66.84;101299.03;5013359;28;20073;-55
2021/03/02 09:50:35;;;;;;;16.42;10.75;;;;;;;7.30;66.76;101298.31;5029015;28;20033;-55
2021/03/02 09:53:19;;;;;;;16.73;11.75;;;;;;;7.31;66.61;101295.81;5013740;28;20030;-55
2021/03/02 09:55:48;;;;;;;22.52;10.82;;;;;;;7.34;66.16;101299.34;5013816;28;20045;-54
2021/03/02 09:58:19;;;;;;;18.75;11.15;;;;;;;7.35;66.40;101304.56;5012490;28;20045;-55
2021/03/02 10:00:52;;;;;;;18.13;10.68;;;;;;;7.38;66.44;101306.44;5011855;28;20133;-55
2021/03/02 10:03:36;;;;;;;17.15;10.90;;;;;;;7.39;66.10;101305.63;5031164;28;20046;-55
2021/03/02 10:06:09;;;;;;;16.70;11.43;;;;;;;7.41;66.42;101304.00;5016494;28;20041;-55
2021/03/02 10:08:38;;;;;;;18.80;10.93;;;;;;;7.42;66.49;101301.50;5017696;28;20042;-55
2021/03/02 10:11:24;;;;;;;19.35;11.15;;;;;;;7.44;66.15;101305.03;5017445;28;20041;-55
2021/03/02 10:13:54;;;;;;;19.10;10.82;;;;;;;7.47;66.08;101296.56;5032494;28;20401;-55
2021/03/02 10:16:38;;;;;;;16.73;11.27;;;;;;;7.49;66.17;101309.53;5015711;28;20413;-55
2021/03/02 10:19:19;;;;;;;16.30;10.67;;;;;;;7.50;66.24;101298.38;5017553;28;20033;-55
2021/03/02 10:22:01;;;;;;;22.50;12.23;;;;;;;7.51;66.47;101308.81;5015585;28;20425;-54
2021/03/02 10:24:29;;;;;;;18.00;11.88;;;;;;;7.53;66.27;101301.13;5017309;28;20038;-55
2021/03/02 10:27:00;;;;;;;17.65;11.25;;;;;;;7.55;66.22;101302.09;5032173;28;20033;-55
2021/03/02 10:29:32;;;;;;;20.83;11.43;;;;;;;7.58;66.37;101304.81;5017321;28;20045;-54
2021/03/02 10:32:04;;;;;;;18.63;10.63;;;;;;;7.60;66.19;101295.47;5017175;28;20066;-54
2021/03/02 10:34:37;;;;;;;20.88;11.38;;;;;;;7.62;66.50;101291.28;5015336;28;20401;-55
2021/03/02 10:37:09;;;;;;;25.20;11.75;;;;;;;7.66;66.22;101302.63;5032360;28;20030;-55
2021/03/02 10:39:36;;;;;;;19.90;11.07;;;;;;;7.67;66.14;101299.22;5016581;28;20040;-55
2021/03/02 10:42:03;;;;;;;22.70;13.35;;;;;;;7.70;65.87;101301.97;5016947;28;20056;-55
2021/03/02 10:44:34;;;;;;;21.75;12.60;;;;;;;7.71;66.10;101291.69;5016413;28;20033;-55
2021/03/02 10:46:59;;;;;;;15.00;10.85;;;;;;;7.74;66.04;101293.53;5015976;28;20137;-55
2021/03/02 10:49:30;;;;;;;21.75;11.85;;;;;;;7.75;66.19;101288.47;5016477;28;20026;-55
2021/03/02 10:51:55;;;;;;;18.75;10.70;;;;;;;7.77;65.92;101289.41;5016505;28;20034;-55
2021/03/02 10:54:27;;;;;;;22.92;11.32;;;;;;;7.80;65.95;101293.84;5015416;28;20099;-55
2021/03/02 10:56:52;;;;;;;17.98;12.00;;;;;;;7.82;66.05;101291.31;5031559;28;20552;-55
2021/03/02 10:59:23;;;;;;;17.60;10.07;;;;;;;7.83;65.71;101287.91;5015377;28;20033;-55
2021/03/02 11:01:48;;;;;;;19.35;12.02;;;;;;;7.86;65.68;101293.22;5016444;28;20049;-55
2021/03/02 11:04:17;;;;;;;18.23;10.82;;;;;;;7.88;65.98;101291.59;5015018;28;20034;-54
2021/03/02 11:06:43;;;;;;;19.98;11.57;;;;;;;7.90;65.85;101288.28;5014939;28;20059;-55
2021/03/02 11:09:09;;;;;;;22.90;11.20;;;;;;;7.93;65.67;101291.00;5016178;28;20061;-55
2021/03/02 11:11:37;;;;;;;20.25;11.52;;;;;;;7.97;65.81;101291.16;5016405;28;20507;-55
2021/03/02 11:14:05;;;;;;;16.58;10.07;;;;;;;8.00;65.63;101283.56;5014260;28;20157;-55
2021/03/02 11:16:33;;;;;;;17.67;10.77;;;;;;;8.02;65.67;101289.69;5016359;28;20494;-54
2021/03/02 11:19:01;;;;;;;19.42;12.48;;;;;;;8.04;65.66;101280.28;5016131;28;20123;-54
2021/03/02 11:21:32;;;;;;;24.00;11.80;;;;;;;8.06;65.88;101281.25;5016092;28;20087;-55
2021/03/02 11:24:03;;;;;;;21.30;12.48;;;;;;;8.10;65.92;101277.13;5015853;28;20033;-55
2021/03/02 11:26:34;;;;;;;18.83;11.50;;;;;;;8.12;65.59;101272.88;5015611;28;20037;-55
2021/03/02 11:29:02;;;;;;;20.45;11.35;;;;;;;8.15;65.94;101276.53;5015761;28;20096;-55
2021/03/02 11:31:28;;;;;;;21.88;11.85;;;;;;;8.19;65.66;101277.53;5016028;28;20030;-55
2021/03/02 11:33:53;;;;;;;20.00;11.52;;;;;;;8.21;65.69;101274.19;5014364;28;20049;-55
2021/03/02 11:36:24;;;;;;;21.95;11.20;;;;;;;8.21;65.77;101275.91;5014397;28;20379;-55
2021/03/02 11:38:55;;;;;;;17.52;11.50;;;;;;;8.22;65.34;101272.50;5015860;28;20042;-56